createdAt,value
2019-02-20T00:01:41.924Z,48.47
2019-02-20T00:04:11.441Z,46.10
2019-02-20T00:06:40.805Z,52.30
2019-02-20T00:09:10.207Z,49.17
2019-02-20T00:11:39.706Z,48.03
2019-02-20T00:14:09.031Z,51.07
2019-02-20T00:16:38.461Z,47.63
2019-02-20T00:19:07.993Z,46.80
2019-02-20T00:21:37.460Z,49.07
2019-02-20T00:24:06.996Z,50.33
2019-02-20T00:26:36.383Z,48.87
2019-02-20T00:29:06.612Z,54.53
2019-02-20T00:31:36.126Z,58.67
2019-02-20T00:34:05.621Z,53.47
2019-02-20T00:36:35.078Z,52.30
2019-02-20T00:39:06.669Z,55.53
2019-02-20T00:41:36.124Z,56.20
2019-02-20T00:44:33.365Z,53.07
2019-02-20T00:47:12.202Z,53.47
2019-02-20T00:49:45.146Z,69.43
2019-02-20T00:52:37.013Z,70.07
2019-02-20T00:55:07.505Z,66.33
2019-02-20T00:57:36.951Z,65.83
2019-02-20T01:00:07.170Z,71.20
2019-02-20T01:02:36.617Z,76.13
2019-02-20T01:05:07.019Z,62.43
2019-02-20T01:07:36.478Z,55.97
2019-02-20T01:10:06.435Z,63.20
2019-02-20T01:12:35.894Z,62.30
2019-02-20T01:15:05.788Z,62.73
2019-02-20T01:17:35.298Z,66.43
2019-02-20T01:20:05.013Z,64.83
2019-02-20T01:22:34.413Z,60.43
2019-02-20T01:25:03.723Z,58.40
2019-02-20T01:27:33.098Z,55.80
2019-02-20T01:30:02.439Z,46.87
2019-02-20T01:32:32.057Z,45.47
2019-02-20T01:35:01.441Z,44.00
2019-02-20T01:37:30.819Z,38.20
2019-02-20T01:40:00.262Z,39.57
2019-02-20T01:42:29.602Z,39.93
2019-02-20T01:44:58.984Z,38.27
2019-02-20T01:47:35.508Z,38.20
2019-02-20T01:50:05.513Z,42.13
2019-02-20T01:52:34.884Z,40.77
2019-02-20T01:55:04.284Z,46.30
2019-02-20T01:57:33.669Z,46.27
2019-02-20T02:00:02.983Z,42.73
2019-02-20T02:02:32.350Z,40.10
2019-02-20T02:05:01.722Z,43.20
2019-02-20T02:07:31.093Z,44.53
2019-02-20T02:10:00.542Z,53.90
2019-02-20T02:12:29.922Z,50.87
2019-02-20T02:14:59.308Z,45.97
2019-02-20T02:17:28.681Z,48.40
2019-02-20T02:19:58.358Z,50.43
2019-02-20T02:22:27.710Z,63.53
2019-02-20T02:24:57.063Z,62.27
2019-02-20T02:27:26.443Z,53.10
2019-02-20T02:29:55.758Z,54.10
2019-02-20T02:32:25.093Z,53.80
2019-02-20T02:34:54.397Z,49.23
2019-02-20T02:37:23.756Z,44.40
2019-02-20T02:39:53.108Z,47.73
2019-02-20T02:42:22.430Z,46.37
2019-02-20T02:44:51.771Z,46.93
2019-02-20T02:47:21.222Z,47.57
2019-02-20T02:49:50.570Z,44.57
2019-02-20T02:52:19.934Z,44.77
2019-02-20T02:54:49.464Z,45.00
2019-02-20T02:57:18.847Z,46.37
2019-02-20T02:59:48.235Z,50.53
2019-02-20T03:02:18.079Z,50.20
2019-02-20T03:04:47.376Z,53.03
2019-02-20T03:07:16.702Z,46.63
2019-02-20T03:09:46.032Z,43.07
2019-02-20T03:12:15.354Z,37.90
2019-02-20T03:14:44.716Z,36.93
2019-02-20T03:17:14.055Z,39.67
2019-02-20T03:19:43.398Z,38.33
2019-02-20T03:22:12.748Z,38.60
2019-02-20T03:24:42.123Z,43.73
2019-02-20T03:27:11.496Z,49.23
2019-02-20T03:29:41.248Z,48.07
2019-02-20T03:32:10.631Z,42.47
2019-02-20T03:34:39.945Z,49.53
2019-02-20T03:37:09.290Z,48.23
2019-02-20T03:39:38.594Z,48.53
2019-02-20T03:42:07.941Z,48.07
2019-02-20T03:44:37.288Z,52.00
2019-02-20T03:47:06.748Z,56.33
2019-02-20T03:49:36.094Z,54.27
2019-02-20T03:52:05.445Z,52.20
2019-02-20T03:54:34.836Z,48.20
2019-02-20T03:57:04.217Z,48.10
2019-02-20T03:59:33.708Z,49.87
2019-02-20T04:02:03.095Z,48.37
2019-02-20T04:04:32.434Z,48.57
2019-02-20T04:07:01.766Z,50.67
2019-02-20T04:09:31.107Z,53.57
2019-02-20T04:12:00.406Z,53.47
2019-02-20T04:14:29.970Z,51.17
2019-02-20T04:16:59.301Z,43.53
2019-02-20T04:19:28.622Z,39.43
2019-02-20T04:21:57.982Z,33.10
2019-02-20T04:24:27.332Z,30.47
2019-02-20T04:26:56.659Z,29.33
2019-02-20T04:29:26.020Z,30.20
2019-02-20T04:31:55.454Z,29.53
2019-02-20T04:34:24.898Z,28.50
2019-02-20T04:36:54.237Z,28.23
2019-02-20T04:39:23.557Z,28.27
2019-02-20T04:41:52.921Z,27.23
2019-02-20T04:44:22.531Z,27.83
2019-02-20T04:46:52.244Z,25.87
2019-02-20T04:49:21.609Z,25.27
2019-02-20T04:51:51.008Z,26.50
2019-02-20T04:54:20.356Z,27.10
2019-02-20T04:56:49.787Z,26.37
2019-02-20T04:59:19.148Z,27.30
2019-02-20T05:01:49.218Z,25.77
2019-02-20T05:04:18.587Z,25.47
2019-02-20T05:06:47.958Z,29.27
2019-02-20T05:09:17.312Z,30.53
2019-02-20T05:11:46.724Z,29.77
2019-02-20T05:14:16.033Z,29.23
2019-02-20T05:16:45.377Z,30.57
2019-02-20T05:19:14.738Z,29.77
2019-02-20T05:21:44.045Z,30.40
2019-02-20T05:24:23.788Z,30.37
2019-02-20T05:26:44.522Z,28.63
2019-02-20T05:29:13.971Z,31.63
2019-02-20T05:31:43.313Z,30.23
2019-02-20T05:34:12.673Z,31.20
2019-02-20T05:36:42.009Z,30.43
2019-02-20T05:39:11.429Z,29.97
2019-02-20T05:41:40.790Z,31.60
2019-02-20T05:44:10.116Z,33.67
2019-02-20T05:46:39.457Z,33.23
2019-02-20T05:49:08.901Z,32.97
2019-02-20T05:51:38.244Z,32.20
2019-02-20T05:54:07.643Z,31.93
2019-02-20T05:56:37.014Z,32.87
2019-02-20T05:59:06.371Z,37.57
2019-02-20T06:01:35.760Z,35.80
2019-02-20T06:04:05.228Z,40.93
2019-02-20T06:06:34.609Z,45.20
2019-02-20T06:09:05.715Z,42.67
2019-02-20T06:11:35.067Z,53.20
2019-02-20T06:14:04.376Z,60.77
2019-02-20T06:16:33.715Z,49.07
2019-02-20T06:19:03.022Z,53.77
2019-02-20T06:21:32.363Z,41.43
2019-02-20T06:24:01.760Z,31.33
2019-02-20T06:26:31.128Z,29.93
2019-02-20T06:29:00.493Z,29.30
2019-02-20T06:31:29.822Z,28.83
2019-02-20T06:33:59.121Z,29.50
2019-02-20T06:36:28.463Z,27.40
2019-02-20T06:38:58.338Z,28.10
2019-02-20T06:41:27.674Z,27.60
2019-02-20T06:43:56.989Z,27.27
2019-02-20T06:46:26.337Z,27.30
2019-02-20T06:48:55.670Z,27.00
2019-02-20T06:51:25.016Z,27.87
2019-02-20T06:53:54.375Z,28.63
2019-02-20T06:56:23.741Z,28.60
2019-02-20T06:58:53.178Z,28.73
2019-02-20T07:01:22.550Z,30.43
2019-02-20T07:03:51.860Z,59.50
2019-02-20T07:06:27.021Z,61.90
2019-02-20T07:09:32.645Z,54.50
2019-02-20T07:12:45.664Z,53.67
2019-02-20T07:15:39.967Z,33.37
2019-02-20T07:18:30.729Z,33.53
2019-02-20T07:21:37.014Z,29.07
2019-02-20T07:24:33.090Z,30.73
2019-02-20T07:27:27.717Z,30.93
2019-02-20T07:30:01.660Z,32.40
2019-02-20T07:32:31.662Z,31.30
2019-02-20T07:35:01.050Z,32.97
2019-02-20T07:37:30.410Z,32.87
2019-02-20T07:39:59.936Z,30.97
2019-02-20T07:42:29.418Z,30.63
2019-02-20T07:44:58.769Z,29.97
2019-02-20T07:47:28.107Z,31.47
2019-02-20T07:49:57.577Z,30.47
2019-02-20T07:52:26.985Z,32.50
2019-02-20T07:54:56.316Z,30.83
2019-02-20T07:57:25.765Z,29.73
2019-02-20T07:59:55.563Z,31.07
2019-02-20T08:02:24.989Z,31.57
2019-02-20T08:04:54.885Z,30.83
2019-02-20T08:07:24.386Z,29.17
2019-02-20T08:09:53.787Z,27.40
2019-02-20T08:12:23.402Z,25.00
2019-02-20T08:14:52.741Z,25.50
2019-02-20T08:17:22.099Z,28.43
2019-02-20T08:19:51.534Z,26.80
2019-02-20T08:22:20.912Z,25.97
2019-02-20T08:24:50.327Z,24.23
2019-02-20T08:27:19.671Z,29.50
2019-02-20T08:29:49.027Z,26.27
2019-02-20T08:32:18.505Z,28.03
2019-02-20T08:34:47.876Z,26.63
2019-02-20T08:37:17.251Z,27.17
2019-02-20T08:39:46.605Z,29.17
2019-02-20T08:42:16.125Z,30.63
2019-02-20T08:44:45.788Z,28.90
2019-02-20T08:47:15.183Z,30.03
2019-02-20T08:49:44.827Z,30.87
2019-02-20T08:52:14.227Z,30.87
2019-02-20T08:54:43.606Z,30.17
2019-02-20T08:57:12.919Z,29.30
2019-02-20T08:59:42.272Z,30.17
2019-02-20T09:02:11.686Z,32.10
2019-02-20T09:04:41.028Z,32.27
2019-02-20T09:07:10.748Z,33.20
2019-02-20T09:09:40.118Z,34.87
2019-02-20T09:12:09.510Z,34.90
2019-02-20T09:14:38.879Z,37.40
2019-02-20T09:17:08.219Z,38.43
2019-02-20T09:19:37.563Z,39.37
2019-02-20T09:22:06.986Z,39.33
2019-02-20T09:24:36.346Z,39.30
2019-02-20T09:27:05.715Z,42.17
2019-02-20T09:29:35.064Z,42.33
2019-02-20T09:32:04.427Z,43.17
2019-02-20T09:34:33.795Z,44.77
2019-02-20T09:37:03.235Z,45.70
2019-02-20T09:39:38.273Z,45.93
2019-02-20T09:42:12.608Z,44.87
2019-02-20T09:44:46.827Z,41.07
2019-02-20T09:47:16.267Z,42.87
2019-02-20T09:49:45.661Z,42.67
2019-02-20T09:52:15.045Z,42.40
2019-02-20T09:54:44.531Z,42.53
2019-02-20T09:57:14.046Z,31.60
2019-02-20T09:59:43.414Z,23.90
2019-02-20T10:02:12.809Z,21.97
2019-02-20T10:04:42.154Z,18.53
2019-02-20T10:07:12.024Z,18.83
2019-02-20T10:09:41.399Z,19.13
2019-02-20T10:12:10.773Z,18.00
2019-02-20T10:14:40.464Z,14.73
2019-02-20T10:17:09.890Z,14.13
2019-02-20T10:19:39.232Z,15.83
2019-02-20T10:22:08.571Z,15.67
2019-02-20T10:24:37.966Z,16.10
2019-02-20T10:27:07.337Z,14.90
2019-02-20T10:29:36.659Z,15.37
2019-02-20T10:32:06.065Z,16.03
2019-02-20T10:34:35.464Z,15.03
2019-02-20T10:37:04.810Z,15.60
2019-02-20T10:39:34.276Z,15.43
2019-02-20T10:42:03.662Z,15.90
2019-02-20T10:44:33.046Z,16.20
2019-02-20T10:47:02.706Z,16.87
2019-02-20T10:49:32.067Z,16.80
2019-02-20T10:52:01.451Z,15.70
2019-02-20T10:54:30.799Z,16.27
2019-02-20T10:57:00.165Z,17.20
2019-02-20T10:59:29.599Z,16.07
2019-02-20T11:01:58.978Z,16.60
2019-02-20T11:04:28.448Z,16.80
2019-02-20T11:06:57.806Z,17.13
2019-02-20T11:09:27.180Z,16.23
2019-02-20T11:11:56.556Z,15.83
2019-02-20T11:14:25.918Z,16.80
2019-02-20T11:16:55.279Z,17.23
2019-02-20T11:19:24.607Z,15.93
2019-02-20T11:21:53.952Z,15.77
2019-02-20T11:24:23.336Z,14.73
2019-02-20T11:26:55.126Z,15.83
2019-02-20T11:29:23.767Z,13.87
2019-02-20T11:31:54.111Z,12.77
2019-02-20T11:34:23.460Z,17.07
2019-02-20T11:36:52.779Z,14.67
2019-02-20T11:39:22.220Z,14.90
2019-02-20T11:41:51.683Z,14.23
2019-02-20T11:44:21.386Z,15.87
2019-02-20T11:46:50.798Z,15.07
2019-02-20T11:49:20.235Z,15.30
2019-02-20T11:51:49.581Z,15.97
2019-02-20T11:54:18.968Z,14.97
2019-02-20T11:56:48.302Z,14.77
2019-02-20T11:59:17.711Z,15.37
2019-02-20T12:01:47.083Z,15.00
2019-02-20T12:04:16.420Z,15.63
2019-02-20T12:06:45.766Z,15.13
2019-02-20T12:09:15.123Z,14.93
2019-02-20T12:11:44.501Z,14.57
2019-02-20T12:14:13.871Z,15.33
2019-02-20T12:16:43.286Z,14.77
2019-02-20T12:19:12.664Z,16.53
2019-02-20T12:21:41.998Z,15.53
2019-02-20T12:24:11.947Z,16.03
2019-02-20T12:26:41.526Z,15.73
2019-02-20T12:29:11.325Z,16.07
2019-02-20T12:31:40.722Z,14.93
2019-02-20T12:34:10.111Z,15.07
2019-02-20T12:36:39.489Z,14.43
2019-02-20T12:39:08.861Z,14.53
2019-02-20T12:41:38.203Z,14.80
2019-02-20T12:44:07.583Z,14.80
2019-02-20T12:46:36.974Z,13.87
2019-02-20T12:49:06.361Z,15.33
2019-02-20T12:51:36.639Z,15.67
2019-02-20T12:54:06.053Z,14.63
2019-02-20T12:56:43.463Z,15.07
2019-02-20T12:59:07.946Z,14.10
2019-02-20T13:01:37.502Z,14.07
2019-02-20T13:04:06.857Z,13.73
2019-02-20T13:06:36.193Z,13.73
2019-02-20T13:09:07.815Z,14.30
2019-02-20T13:11:37.139Z,14.63
2019-02-20T13:14:06.573Z,13.63
2019-02-20T13:16:35.946Z,13.77
2019-02-20T13:19:05.325Z,13.20
2019-02-20T13:21:34.731Z,13.73
2019-02-20T13:24:04.121Z,14.87
2019-02-20T13:26:52.797Z,14.83
2019-02-20T13:29:16.799Z,12.80
2019-02-20T13:31:46.289Z,13.33
2019-02-20T13:34:15.623Z,12.30
2019-02-20T13:36:44.977Z,12.47
2019-02-20T13:39:14.316Z,12.20
2019-02-20T13:41:44.497Z,12.73
2019-02-20T13:44:13.960Z,12.33
2019-02-20T13:46:43.360Z,12.03
2019-02-20T13:49:13.130Z,12.50
2019-02-20T13:51:42.574Z,11.53
2019-02-20T13:54:11.957Z,12.87
2019-02-20T13:56:41.286Z,13.57
2019-02-20T13:59:10.629Z,13.30
2019-02-20T14:01:39.992Z,13.13
2019-02-20T14:04:09.311Z,13.30
2019-02-20T14:06:38.624Z,14.00
2019-02-20T14:09:08.251Z,12.57
2019-02-20T14:11:37.580Z,13.43
2019-02-20T14:14:08.802Z,12.07
2019-02-20T14:16:38.071Z,13.63
2019-02-20T14:19:07.435Z,14.00
2019-02-20T14:21:36.791Z,14.03
2019-02-20T14:24:06.237Z,15.03
2019-02-20T14:26:37.815Z,15.20
2019-02-20T14:29:07.215Z,15.63
2019-02-20T14:31:36.543Z,15.63
2019-02-20T14:34:05.956Z,14.03
2019-02-20T14:36:35.289Z,14.63
2019-02-20T14:39:05.683Z,14.77
2019-02-20T14:41:35.092Z,15.83
2019-02-20T14:44:04.423Z,16.63
2019-02-20T14:46:33.795Z,16.63
2019-02-20T14:49:03.154Z,17.80
2019-02-20T14:51:34.061Z,16.00
2019-02-20T14:54:03.508Z,17.10
2019-02-20T14:56:32.834Z,16.77
2019-02-20T14:59:02.287Z,16.83
2019-02-20T15:01:32.060Z,16.20
2019-02-20T15:04:01.363Z,16.87
2019-02-20T15:06:31.098Z,16.33
2019-02-20T15:09:00.460Z,16.37
2019-02-20T15:11:29.835Z,16.00
2019-02-20T15:13:59.185Z,16.80
2019-02-20T15:16:28.541Z,15.70
2019-02-20T15:18:57.917Z,16.10
2019-02-20T15:21:27.411Z,17.17
2019-02-20T15:23:57.123Z,18.63
2019-02-20T15:26:26.459Z,16.97
2019-02-20T15:28:55.762Z,15.83
2019-02-20T15:31:33.485Z,17.37
2019-02-20T15:33:56.222Z,16.13
2019-02-20T15:36:25.957Z,15.80
2019-02-20T15:38:55.318Z,16.60
2019-02-20T15:41:24.643Z,17.27
2019-02-20T15:43:54.027Z,16.60
2019-02-20T15:46:23.382Z,16.83
2019-02-20T15:48:52.829Z,17.50
2019-02-20T15:51:22.487Z,17.63
2019-02-20T15:53:51.872Z,15.80
2019-02-20T15:56:21.287Z,17.53
2019-02-20T15:58:51.729Z,17.33
2019-02-20T16:01:21.063Z,17.03
2019-02-20T16:03:50.395Z,16.97
2019-02-20T16:06:19.831Z,17.60
2019-02-20T16:08:49.311Z,19.03
2019-02-20T16:11:18.647Z,16.97
2019-02-20T16:13:48.039Z,18.63
2019-02-20T16:16:17.373Z,19.00
2019-02-20T16:18:46.745Z,18.47
2019-02-20T16:21:16.124Z,18.03
2019-02-20T16:23:45.646Z,18.57
2019-02-20T16:26:15.028Z,17.93
2019-02-20T16:28:44.402Z,17.27
2019-02-20T16:31:13.738Z,18.27
2019-02-20T16:33:43.128Z,19.00
2019-02-20T16:36:12.470Z,19.03
2019-02-20T16:38:42.090Z,18.47
2019-02-20T16:41:11.484Z,19.13
2019-02-20T16:43:42.432Z,19.30
2019-02-20T16:46:11.832Z,18.43
2019-02-20T16:48:43.149Z,17.97
2019-02-20T16:51:12.626Z,18.73
2019-02-20T16:53:42.397Z,19.33
2019-02-20T16:56:11.868Z,20.27
2019-02-20T16:58:43.115Z,20.50
2019-02-20T17:01:12.272Z,20.33
2019-02-20T17:03:41.795Z,20.20
2019-02-20T17:06:12.714Z,20.83
2019-02-20T17:08:42.323Z,20.03
2019-02-20T17:11:11.675Z,22.27
2019-02-20T17:13:41.017Z,21.53
2019-02-20T17:16:10.502Z,19.73
2019-02-20T17:18:40.054Z,20.77
2019-02-20T17:21:09.522Z,19.03
2019-02-20T17:23:39.067Z,18.57
2019-02-20T17:26:08.501Z,21.30
2019-02-20T17:28:37.856Z,18.53
2019-02-20T17:31:07.267Z,20.07
2019-02-20T17:33:36.626Z,19.87
2019-02-20T17:36:05.979Z,20.27
2019-02-20T17:38:35.700Z,22.13
2019-02-20T17:41:05.368Z,20.97
2019-02-20T17:43:34.748Z,21.67
2019-02-20T17:46:04.236Z,22.13
2019-02-20T17:48:33.591Z,22.30
2019-02-20T17:51:02.979Z,20.83
2019-02-20T17:53:33.154Z,20.27
2019-02-20T17:56:02.589Z,21.87
2019-02-20T17:58:32.003Z,24.07
2019-02-20T18:01:03.047Z,22.37
2019-02-20T18:03:32.377Z,24.17
2019-02-20T18:06:01.710Z,23.80
2019-02-20T18:08:31.398Z,23.67
2019-02-20T18:11:01.534Z,22.77
2019-02-20T18:13:31.488Z,22.67
2019-02-20T18:16:00.843Z,22.67
2019-02-20T18:18:30.507Z,23.10
2019-02-20T18:20:59.864Z,22.60
2019-02-20T18:23:29.566Z,21.50
2019-02-20T18:25:58.959Z,22.57
2019-02-20T18:28:28.289Z,22.63
2019-02-20T18:30:57.659Z,21.87
2019-02-20T18:33:27.013Z,20.83
2019-02-20T18:36:01.618Z,23.00
2019-02-20T18:38:30.987Z,21.73
2019-02-20T18:41:00.344Z,21.10
2019-02-20T18:43:29.710Z,22.33
2019-02-20T18:45:59.044Z,22.33
2019-02-20T18:48:28.406Z,21.37
2019-02-20T18:50:57.760Z,20.30
2019-02-20T18:53:27.079Z,18.07
2019-02-20T18:55:56.572Z,18.37
2019-02-20T18:58:33.662Z,18.73
2019-02-20T19:00:59.027Z,18.83
2019-02-20T19:03:28.539Z,18.97
2019-02-20T19:05:57.872Z,19.73
2019-02-20T19:08:44.831Z,18.90
2019-02-20T19:11:22.230Z,18.50
2019-02-20T19:14:03.021Z,18.07
2019-02-20T19:17:08.145Z,21.20
2019-02-20T19:20:04.204Z,19.10
2019-02-20T19:22:45.409Z,17.63
2019-02-20T19:25:57.607Z,16.07
2019-02-20T19:28:44.043Z,16.97
2019-02-20T19:32:00.025Z,17.90
2019-02-20T19:35:02.746Z,16.83
2019-02-20T19:38:07.531Z,17.27
2019-02-20T19:41:06.957Z,16.77
2019-02-20T19:44:02.632Z,17.03
2019-02-20T19:47:13.246Z,18.33
2019-02-20T19:50:33.246Z,18.77
2019-02-20T19:53:34.902Z,17.17
2019-02-20T19:56:34.307Z,17.70
2019-02-20T19:59:44.729Z,18.37
2019-02-20T20:03:10.142Z,19.90
2019-02-20T20:06:31.707Z,19.10
2019-02-20T20:09:30.844Z,19.37
2019-02-20T20:12:39.948Z,24.53
2019-02-20T20:15:23.026Z,22.07
2019-02-20T20:18:28.987Z,18.83
2019-02-20T20:21:41.722Z,17.63
2019-02-20T20:24:54.618Z,16.63
2019-02-20T20:28:16.351Z,16.27
2019-02-20T20:31:28.458Z,16.03
2019-02-20T20:35:00.019Z,17.33
2019-02-20T20:37:41.517Z,18.70
2019-02-20T20:40:35.102Z,19.33
2019-02-20T20:43:43.994Z,20.20
2019-02-20T20:46:50.071Z,21.53
2019-02-20T20:49:35.269Z,22.23
2019-02-20T20:52:46.603Z,23.47
2019-02-20T20:56:21.319Z,22.43
2019-02-20T20:59:20.760Z,21.60
2019-02-20T21:01:55.326Z,20.10
2019-02-20T21:05:00.687Z,22.13
2019-02-20T21:07:52.848Z,20.23
2019-02-20T21:10:54.213Z,21.13
2019-02-20T21:13:50.064Z,22.77
2019-02-20T21:17:06.403Z,21.03
2019-02-20T21:19:56.476Z,21.70
2019-02-20T21:23:19.860Z,19.70
2019-02-20T21:26:30.176Z,20.27
2019-02-20T21:29:30.734Z,21.13
2019-02-20T21:32:43.416Z,21.30
2019-02-20T21:35:52.955Z,21.27
2019-02-20T21:38:49.422Z,23.73
2019-02-20T21:41:58.733Z,22.77
2019-02-20T21:44:45.761Z,23.20
2019-02-20T21:48:01.021Z,23.57
2019-02-20T21:51:20.587Z,23.80
2019-02-20T21:54:58.418Z,25.30
2019-02-20T21:58:05.447Z,24.13
2019-02-20T22:01:04.966Z,23.23
2019-02-20T22:04:07.345Z,24.10
2019-02-20T22:07:20.544Z,22.77
2019-02-20T22:10:29.682Z,21.63
2019-02-20T22:13:42.005Z,22.37
2019-02-20T22:16:40.977Z,21.97
2019-02-20T22:20:00.514Z,22.10
2019-02-20T22:23:14.142Z,23.93
2019-02-20T22:25:57.241Z,25.37
2019-02-20T22:29:05.031Z,24.93
2019-02-20T22:32:24.360Z,24.00
2019-02-20T22:35:21.979Z,25.20
2019-02-20T22:38:41.360Z,24.63
2019-02-20T22:42:06.938Z,25.53
2019-02-20T22:45:17.739Z,24.13
2019-02-20T22:48:09.768Z,23.40
2019-02-20T22:51:16.555Z,24.23
2019-02-20T22:54:45.407Z,24.10
2019-02-20T22:57:42.845Z,23.70
2019-02-20T23:01:08.051Z,23.70
2019-02-20T23:03:57.725Z,23.20
2019-02-20T23:06:58.847Z,22.60
2019-02-20T23:09:59.305Z,20.37
2019-02-20T23:12:54.351Z,20.63
2019-02-20T23:15:23.699Z,20.20
2019-02-20T23:17:53.051Z,20.20
2019-02-20T23:20:22.396Z,19.30
2019-02-20T23:22:51.735Z,19.17
2019-02-20T23:25:21.079Z,18.70
2019-02-20T23:27:50.514Z,19.90
2019-02-20T23:30:19.887Z,17.93
2019-02-20T23:32:49.231Z,18.90
2019-02-20T23:35:18.584Z,18.30
2019-02-20T23:37:47.963Z,18.33
2019-02-20T23:40:17.369Z,18.63
2019-02-20T23:42:49.001Z,18.50
2019-02-20T23:45:17.845Z,18.97
2019-02-20T23:47:47.169Z,20.30
2019-02-20T23:50:16.501Z,21.33
2019-02-20T23:52:45.845Z,20.83
2019-02-20T23:55:15.202Z,21.50
2019-02-20T23:57:44.543Z,21.50
